createdAt,value
2022-10-23T00:01:27.366Z,36.45
2022-10-23T00:04:19.216Z,32.95
2022-10-23T00:07:04.872Z,37.35
2022-10-23T00:09:50.281Z,38.80
2022-10-23T00:12:36.294Z,38.63
2022-10-23T00:15:22.802Z,36.05
2022-10-23T00:18:08.092Z,39.47
2022-10-23T00:20:53.468Z,39.83
2022-10-23T00:23:40.417Z,39.25
2022-10-23T00:26:25.784Z,34.22
2022-10-23T00:29:12.035Z,34.97
2022-10-23T00:31:57.596Z,31.67
2022-10-23T00:34:42.895Z,32.05
2022-10-23T00:37:28.446Z,31.38
2022-10-23T00:40:14.155Z,35.28
2022-10-23T00:42:59.393Z,33.40
2022-10-23T00:45:48.168Z,36.58
2022-10-23T00:48:33.416Z,28.42
2022-10-23T00:51:19.259Z,32.67
2022-10-23T00:57:14.308Z,36.33
2022-10-23T00:59:59.479Z,36.38
2022-10-23T01:02:45.792Z,32.20
2022-10-23T01:06:00.860Z,31.10
2022-10-23T01:09:08.005Z,37.35
2022-10-23T01:12:01.062Z,28.77
2022-10-23T01:15:01.968Z,36.03
2022-10-23T01:17:53.434Z,34.03
2022-10-23T01:20:49.248Z,28.38
2022-10-23T01:24:05.445Z,31.75
2022-10-23T01:27:25.684Z,30.65
2022-10-23T01:30:17.957Z,25.98
2022-10-23T01:33:14.476Z,26.52
2022-10-23T01:36:10.855Z,34.63
2022-10-23T01:39:06.699Z,36.53
2022-10-23T01:42:15.380Z,35.60
2022-10-23T01:45:19.261Z,33.70
2022-10-23T01:48:09.611Z,30.38
2022-10-23T01:50:58.644Z,34.53
2022-10-23T01:53:47.352Z,29.75
2022-10-23T01:56:37.632Z,51.38
2022-10-23T01:59:29.915Z,34.75
2022-10-23T02:02:17.700Z,33.38
2022-10-23T02:05:15.446Z,37.08
2022-10-23T02:08:01.610Z,30.38
2022-10-23T02:11:13.936Z,33.65
2022-10-23T02:14:01.835Z,31.23
2022-10-23T02:16:55.361Z,32.90
2022-10-23T02:19:58.000Z,35.90
2022-10-23T02:22:54.530Z,31.80
2022-10-23T02:25:53.543Z,36.22
2022-10-23T02:28:55.994Z,31.33
2022-10-23T02:31:41.761Z,33.85
2022-10-23T02:34:27.802Z,36.80
2022-10-23T02:37:13.683Z,32.45
2022-10-23T02:39:58.984Z,39.08
2022-10-23T02:43:02.184Z,38.13
2022-10-23T02:45:59.097Z,37.33
2022-10-23T02:49:14.940Z,35.35
2022-10-23T02:52:07.670Z,32.13
2022-10-23T02:55:12.671Z,33.83
2022-10-23T02:58:12.452Z,45.28
2022-10-23T03:01:10.502Z,39.20
2022-10-23T03:03:59.587Z,38.00
2022-10-23T03:06:45.224Z,32.38
2022-10-23T03:09:34.850Z,29.73
2022-10-23T03:12:20.424Z,37.70
2022-10-23T03:15:07.172Z,35.97
2022-10-23T03:17:52.548Z,37.97
2022-10-23T03:20:37.822Z,39.63
2022-10-23T03:23:23.870Z,39.42
2022-10-23T03:26:09.549Z,30.17
2022-10-23T03:28:59.561Z,38.75
2022-10-23T03:31:45.217Z,35.47
2022-10-23T03:34:30.908Z,33.28
2022-10-23T03:37:20.564Z,33.67
2022-10-23T03:40:09.812Z,33.70
2022-10-23T03:42:55.385Z,33.50
2022-10-23T03:45:41.152Z,37.65
2022-10-23T03:48:26.604Z,34.30
2022-10-23T03:51:16.770Z,42.10
2022-10-23T03:54:11.769Z,37.25
2022-10-23T03:56:57.907Z,41.28
2022-10-23T03:59:44.644Z,38.58
2022-10-23T04:02:30.321Z,41.15
2022-10-23T04:05:15.913Z,31.98
2022-10-23T04:08:17.627Z,41.93
2022-10-23T04:11:07.486Z,41.15
2022-10-23T04:14:00.373Z,44.42
2022-10-23T04:16:45.677Z,37.13
2022-10-23T04:19:31.265Z,37.65
2022-10-23T04:22:16.780Z,38.63
2022-10-23T04:25:02.737Z,32.63
2022-10-23T04:27:49.686Z,29.40
2022-10-23T04:30:38.773Z,36.53
2022-10-23T04:33:25.142Z,33.50
2022-10-23T04:36:11.434Z,35.28
2022-10-23T04:38:58.580Z,40.22
2022-10-23T04:41:44.197Z,36.15
2022-10-23T04:44:29.813Z,38.97
2022-10-23T04:47:15.369Z,31.73
2022-10-23T04:50:15.672Z,31.00
2022-10-23T04:53:19.804Z,32.47
2022-10-23T04:56:20.764Z,28.10
2022-10-23T04:59:10.075Z,34.65
2022-10-23T05:01:57.601Z,23.83
2022-10-23T05:04:42.969Z,26.23
2022-10-23T05:08:04.195Z,30.02
2022-10-23T05:11:10.038Z,31.15
2022-10-23T05:14:01.360Z,24.52
2022-10-23T05:16:51.993Z,29.48
2022-10-23T05:19:44.192Z,26.60
2022-10-23T05:22:33.431Z,29.08
2022-10-23T05:25:19.037Z,28.90
2022-10-23T05:28:13.410Z,24.90
2022-10-23T05:31:02.550Z,25.17
2022-10-23T05:33:52.715Z,28.20
2022-10-23T05:36:39.483Z,24.55
2022-10-23T05:39:25.034Z,24.88
2022-10-23T05:42:11.567Z,23.13
2022-10-23T05:44:57.752Z,23.08
2022-10-23T05:48:10.774Z,27.42
2022-10-23T05:51:40.862Z,24.52
2022-10-23T05:54:40.214Z,27.20
2022-10-23T05:57:42.285Z,26.00
2022-10-23T06:00:29.539Z,32.83
2022-10-23T06:03:33.756Z,24.20
2022-10-23T06:06:22.776Z,32.97
2022-10-23T06:09:08.815Z,30.40
2022-10-23T06:11:58.011Z,28.25
2022-10-23T06:14:43.720Z,28.25
2022-10-23T06:17:29.776Z,23.25
2022-10-23T06:20:15.131Z,33.47
2022-10-23T06:23:01.313Z,26.38
2022-10-23T06:26:12.631Z,29.27
2022-10-23T06:29:27.599Z,26.85
2022-10-23T06:32:14.048Z,31.60
2022-10-23T06:35:05.371Z,26.65
2022-10-23T06:37:51.182Z,26.35
2022-10-23T06:40:55.919Z,21.98
2022-10-23T06:43:51.869Z,31.40
2022-10-23T06:46:47.221Z,31.92
2022-10-23T06:49:36.173Z,27.42
2022-10-23T06:52:45.285Z,26.65
2022-10-23T06:55:33.901Z,29.70
2022-10-23T06:58:19.480Z,24.10
2022-10-23T07:01:17.974Z,22.83
2022-10-23T07:04:04.015Z,23.98
2022-10-23T07:06:50.176Z,30.70
2022-10-23T07:09:43.769Z,26.45
2022-10-23T07:12:45.322Z,24.15
2022-10-23T07:16:18.483Z,21.52
2022-10-23T07:19:04.113Z,27.17
2022-10-23T07:22:14.974Z,25.65
2022-10-23T07:25:05.623Z,22.17
2022-10-23T07:27:56.541Z,24.75
2022-10-23T07:30:44.058Z,30.13
2022-10-23T07:33:32.489Z,20.98
2022-10-23T07:36:29.057Z,17.08
2022-10-23T07:39:14.728Z,24.27
2022-10-23T07:42:06.392Z,18.02
2022-10-23T07:44:53.196Z,16.70
2022-10-23T07:47:38.829Z,26.10
2022-10-23T07:50:24.360Z,19.02
2022-10-23T07:53:28.758Z,17.92
2022-10-23T07:56:30.025Z,20.10
2022-10-23T07:59:37.865Z,19.55
2022-10-23T08:02:26.890Z,16.35
2022-10-23T08:05:12.075Z,19.80
2022-10-23T08:08:11.271Z,12.45
2022-10-23T08:10:58.507Z,18.98
2022-10-23T08:13:48.525Z,12.95
2022-10-23T08:16:36.757Z,15.48
2022-10-23T08:19:21.971Z,20.83
2022-10-23T08:22:10.805Z,20.73
2022-10-23T08:25:09.510Z,14.95
2022-10-23T08:27:57.357Z,22.92
2022-10-23T08:30:43.104Z,18.85
2022-10-23T08:33:29.128Z,11.93
2022-10-23T08:36:26.573Z,22.55
2022-10-23T08:39:12.237Z,14.35
2022-10-23T08:42:05.234Z,15.50
2022-10-23T08:45:05.837Z,17.02
2022-10-23T08:47:59.881Z,13.98
2022-10-23T08:51:22.088Z,21.05
2022-10-23T08:54:39.268Z,14.63
2022-10-23T08:57:33.578Z,17.40
2022-10-23T09:00:19.487Z,17.25
2022-10-23T09:03:05.773Z,15.25
2022-10-23T09:05:59.847Z,17.33
2022-10-23T09:08:59.410Z,18.85
2022-10-23T09:11:52.012Z,16.67
2022-10-23T09:14:52.557Z,15.82
2022-10-23T09:17:41.404Z,15.45
2022-10-23T09:20:35.983Z,14.05
2022-10-23T09:23:23.325Z,12.32
2022-10-23T09:26:17.043Z,15.35
2022-10-23T09:29:33.000Z,15.13
2022-10-23T09:37:55.703Z,9.20
2022-10-23T09:40:42.678Z,14.20
2022-10-23T09:43:29.398Z,15.32
2022-10-23T09:46:24.150Z,13.25
2022-10-23T09:49:23.947Z,17.83
2022-10-23T09:52:12.442Z,10.73
2022-10-23T09:55:01.103Z,20.88
2022-10-23T09:57:47.631Z,17.13
2022-10-23T10:00:33.399Z,13.00
2022-10-23T10:03:24.151Z,16.73
2022-10-23T10:06:33.974Z,15.27
2022-10-23T10:09:19.492Z,12.27
2022-10-23T10:12:31.056Z,8.88
2022-10-23T10:15:48.855Z,12.50
2022-10-23T10:18:50.799Z,16.95
2022-10-23T10:22:00.858Z,16.05
2022-10-23T10:24:55.475Z,13.30
2022-10-23T10:28:00.281Z,13.43
2022-10-23T10:30:52.465Z,9.98
2022-10-23T10:34:22.583Z,11.77
2022-10-23T10:37:37.842Z,13.23
2022-10-23T10:40:49.754Z,11.27
2022-10-23T10:43:50.496Z,9.88
2022-10-23T10:46:39.350Z,11.48
2022-10-23T10:49:54.664Z,17.58
2022-10-23T10:53:13.078Z,16.05
2022-10-23T10:56:07.619Z,13.50
2022-10-23T10:59:00.260Z,17.05
2022-10-23T11:01:49.523Z,11.45
2022-10-23T11:05:04.570Z,13.65
2022-10-23T11:08:00.271Z,7.72
2022-10-23T11:10:48.215Z,14.07
2022-10-23T11:13:40.293Z,11.20
2022-10-23T11:16:32.469Z,12.98
2022-10-23T11:19:23.823Z,13.00
2022-10-23T11:22:23.768Z,13.27
2022-10-23T11:25:49.069Z,15.65
2022-10-23T11:28:58.763Z,11.63
2022-10-23T11:31:59.915Z,8.27
2022-10-23T11:34:52.039Z,11.70
2022-10-23T11:37:37.627Z,8.48
2022-10-23T11:40:26.531Z,19.38
2022-10-23T11:43:12.016Z,7.57
2022-10-23T11:45:58.762Z,6.80
2022-10-23T11:48:47.986Z,14.23
2022-10-23T11:51:42.079Z,14.43
2022-10-23T11:54:27.724Z,10.02
2022-10-23T11:57:15.593Z,11.00
2022-10-23T12:00:01.118Z,8.00
2022-10-23T12:02:57.006Z,14.27
2022-10-23T12:05:49.260Z,10.98
2022-10-23T12:08:44.135Z,11.75
2022-10-23T12:14:37.072Z,6.30
2022-10-23T12:17:24.595Z,6.97
2022-10-23T12:20:14.437Z,13.02
2022-10-23T12:23:37.673Z,8.32
2022-10-23T12:26:45.672Z,7.10
2022-10-23T12:30:02.748Z,6.68
2022-10-23T12:33:06.360Z,7.57
2022-10-23T12:36:11.141Z,9.07
2022-10-23T12:39:03.276Z,8.57
2022-10-23T12:41:48.539Z,8.40
2022-10-23T12:44:34.162Z,8.30
2022-10-23T12:47:19.999Z,6.53
2022-10-23T12:50:24.478Z,14.60
2022-10-23T12:53:18.329Z,8.03
2022-10-23T12:56:06.662Z,10.63
2022-10-23T12:58:54.076Z,7.05
2022-10-23T13:01:41.613Z,13.52
2022-10-23T13:04:32.090Z,13.23
2022-10-23T13:07:20.980Z,8.77
2022-10-23T13:10:07.149Z,6.53
2022-10-23T13:13:02.651Z,9.23
2022-10-23T13:15:48.611Z,7.80
2022-10-23T13:18:41.643Z,9.00
2022-10-23T13:21:29.137Z,10.55
2022-10-23T13:24:21.688Z,8.18
2022-10-23T13:27:33.571Z,10.48
2022-10-23T13:30:48.517Z,6.70
2022-10-23T13:33:38.155Z,12.65
2022-10-23T13:36:24.738Z,10.65
2022-10-23T13:39:10.385Z,9.77
2022-10-23T13:41:59.501Z,8.20
2022-10-23T13:44:45.063Z,8.15
2022-10-23T13:47:30.722Z,11.52
2022-10-23T13:50:16.524Z,7.70
2022-10-23T13:53:05.361Z,9.18
2022-10-23T13:55:54.969Z,7.75
2022-10-23T13:58:46.967Z,8.48
2022-10-23T14:01:35.900Z,7.15
2022-10-23T14:04:21.673Z,8.88
2022-10-23T14:07:06.964Z,8.50
2022-10-23T14:09:56.449Z,7.13
2022-10-23T14:12:43.335Z,6.03
2022-10-23T14:15:28.817Z,5.78
2022-10-23T14:18:14.666Z,8.80
2022-10-23T14:21:05.062Z,8.68
2022-10-23T14:23:51.870Z,9.35
2022-10-23T14:26:38.160Z,11.73
2022-10-23T14:29:24.538Z,9.00
2022-10-23T14:32:14.022Z,8.05
2022-10-23T14:34:59.505Z,7.53
2022-10-23T14:37:45.329Z,10.55
2022-10-23T14:40:31.143Z,11.73
2022-10-23T14:43:16.740Z,10.82
2022-10-23T14:46:14.298Z,7.68
2022-10-23T14:49:02.314Z,7.90
2022-10-23T14:51:50.708Z,9.30
2022-10-23T14:54:36.460Z,7.60
2022-10-23T14:57:22.663Z,9.65
2022-10-23T15:00:09.064Z,10.00
2022-10-23T15:02:54.454Z,10.13
2022-10-23T15:05:42.756Z,6.07
2022-10-23T15:08:29.763Z,12.93
2022-10-23T15:11:15.248Z,8.07
2022-10-23T15:14:26.840Z,7.80
2022-10-23T15:17:15.661Z,8.43
2022-10-23T15:20:01.635Z,8.35
2022-10-23T15:22:47.333Z,12.85
2022-10-23T15:25:32.768Z,7.30
2022-10-23T15:28:18.410Z,9.15
2022-10-23T15:31:05.112Z,9.73
2022-10-23T15:33:50.799Z,7.28
2022-10-23T15:36:36.391Z,6.95
2022-10-23T15:39:25.014Z,15.63
2022-10-23T15:42:10.905Z,17.20
2022-10-23T15:44:56.275Z,6.47
2022-10-23T15:47:41.877Z,10.18
2022-10-23T15:50:27.265Z,9.10
2022-10-23T15:53:12.670Z,8.40
2022-10-23T15:55:58.788Z,7.20
2022-10-23T15:58:44.351Z,14.77
2022-10-23T16:01:29.971Z,5.25
2022-10-23T16:04:16.243Z,10.32
2022-10-23T16:07:01.585Z,8.82
2022-10-23T16:09:46.800Z,9.07
2022-10-23T16:12:32.423Z,13.43
2022-10-23T16:15:17.895Z,9.00
2022-10-23T16:18:04.494Z,12.25
2022-10-23T16:20:55.207Z,8.85
2022-10-23T16:23:40.731Z,10.38
2022-10-23T16:26:29.926Z,6.47
2022-10-23T16:29:15.053Z,11.25
2022-10-23T16:32:03.492Z,11.15
2022-10-23T16:34:48.866Z,8.98
2022-10-23T16:37:34.303Z,8.13
2022-10-23T16:40:24.952Z,7.65
2022-10-23T16:43:46.805Z,15.40
2022-10-23T16:46:46.028Z,12.85
2022-10-23T16:49:32.298Z,10.10
2022-10-23T16:52:17.742Z,13.95
2022-10-23T16:55:03.504Z,12.57
2022-10-23T16:57:48.884Z,13.15
2022-10-23T17:00:35.384Z,15.43
2022-10-23T17:03:20.882Z,12.90
2022-10-23T17:06:11.189Z,10.82
2022-10-23T17:08:58.069Z,13.65
2022-10-23T17:11:45.024Z,10.18
2022-10-23T17:14:30.585Z,13.60
2022-10-23T17:17:16.078Z,11.82
2022-10-23T17:20:01.942Z,9.27
2022-10-23T17:22:51.277Z,9.60
2022-10-23T17:25:40.627Z,9.65
2022-10-23T17:28:26.643Z,10.65
2022-10-23T17:31:16.653Z,10.73
2022-10-23T17:34:06.416Z,18.85
2022-10-23T17:36:53.926Z,7.28
2022-10-23T17:39:41.078Z,12.32
2022-10-23T17:42:26.424Z,10.65
2022-10-23T17:45:12.073Z,17.65
2022-10-23T17:48:00.812Z,8.73
2022-10-23T17:50:46.154Z,10.27
2022-10-23T17:53:37.115Z,12.77
2022-10-23T17:56:25.051Z,12.55
2022-10-23T17:59:13.899Z,6.50
2022-10-23T18:02:00.718Z,9.60
2022-10-23T18:04:46.227Z,8.68
2022-10-23T18:07:31.549Z,8.02
2022-10-23T18:10:17.026Z,14.98
2022-10-23T18:13:03.666Z,8.77
2022-10-23T18:15:49.204Z,11.80
2022-10-23T18:18:34.754Z,7.03
2022-10-23T18:21:22.314Z,12.55
2022-10-23T18:24:07.884Z,10.55
2022-10-23T18:26:53.214Z,12.20
2022-10-23T18:29:39.448Z,14.80
2022-10-23T18:32:24.727Z,15.13
2022-10-23T18:35:10.139Z,14.57
2022-10-23T18:37:55.688Z,13.75
2022-10-23T18:40:42.767Z,11.02
2022-10-23T18:43:42.440Z,8.85
2022-10-23T18:46:29.133Z,9.30
2022-10-23T18:49:16.929Z,15.15
2022-10-23T18:52:03.517Z,14.40
2022-10-23T18:54:49.000Z,15.75
2022-10-23T18:57:35.564Z,25.80
2022-10-23T19:00:21.186Z,15.68
2022-10-23T19:03:09.380Z,15.90
2022-10-23T19:05:54.839Z,21.20
2022-10-23T19:08:42.708Z,25.52
2022-10-23T19:11:29.049Z,26.45
2022-10-23T19:14:16.393Z,22.88
2022-10-23T19:17:08.077Z,27.83
2022-10-23T19:20:06.279Z,19.55
2022-10-23T19:22:54.328Z,23.25
2022-10-23T19:25:40.022Z,13.82
2022-10-23T19:28:28.796Z,17.92
2022-10-23T19:31:14.668Z,13.00
2022-10-23T19:34:00.020Z,16.33
2022-10-23T19:36:47.154Z,9.73
2022-10-23T19:39:32.579Z,14.23
2022-10-23T19:42:17.869Z,14.93
2022-10-23T19:45:07.134Z,12.30
2022-10-23T19:47:52.736Z,11.43
2022-10-23T19:50:39.068Z,13.88
2022-10-23T19:53:24.929Z,11.02
2022-10-23T19:56:12.008Z,14.13
2022-10-23T19:58:57.404Z,15.77
2022-10-23T20:02:33.103Z,9.77
2022-10-23T20:05:19.709Z,12.52
2022-10-23T20:08:05.564Z,11.80
2022-10-23T20:10:50.821Z,13.07
2022-10-23T20:13:36.648Z,12.07
2022-10-23T20:16:31.356Z,12.05
2022-10-23T20:22:03.399Z,13.07
2022-10-23T20:24:48.708Z,23.75
2022-10-23T20:27:34.460Z,24.17
2022-10-23T20:30:22.301Z,27.83
2022-10-23T20:33:08.004Z,29.77
2022-10-23T20:35:53.576Z,26.08
2022-10-23T20:38:41.915Z,23.40
2022-10-23T20:41:29.064Z,23.83
2022-10-23T20:47:05.272Z,21.75
2022-10-23T20:49:50.806Z,23.15
2022-10-23T20:52:36.492Z,17.15
2022-10-23T20:55:21.767Z,19.17
2022-10-23T20:58:07.252Z,12.77
2022-10-23T21:00:55.933Z,11.13
2022-10-23T21:03:50.280Z,21.00
2022-10-23T21:06:51.562Z,10.85
2022-10-23T21:12:26.764Z,10.40
2022-10-23T21:15:12.271Z,8.45
2022-10-23T21:18:07.836Z,6.28
2022-10-23T21:21:04.168Z,7.20
2022-10-23T21:23:55.379Z,9.82
2022-10-23T21:26:41.369Z,7.75
2022-10-23T21:29:26.813Z,4.60
2022-10-23T21:32:12.162Z,4.88
2022-10-23T21:35:01.140Z,7.82
2022-10-23T21:37:47.288Z,7.00
2022-10-23T21:40:32.908Z,7.43
2022-10-23T21:43:18.541Z,9.00
2022-10-23T21:46:11.607Z,6.85
2022-10-23T21:49:01.039Z,7.05
2022-10-23T21:51:50.649Z,7.75
2022-10-23T21:54:36.326Z,12.80
2022-10-23T21:57:21.898Z,4.10
2022-10-23T22:00:08.064Z,5.72
2022-10-23T22:02:57.786Z,7.13
2022-10-23T22:05:43.549Z,6.70
2022-10-23T22:08:30.617Z,7.18
2022-10-23T22:11:16.540Z,8.10
2022-10-23T22:14:03.909Z,10.93
2022-10-23T22:16:49.801Z,10.82
2022-10-23T22:19:35.829Z,9.90
2022-10-23T22:22:24.102Z,12.75
2022-10-23T22:25:09.751Z,9.68
2022-10-23T22:27:55.165Z,4.45
2022-10-23T22:30:40.868Z,6.45
2022-10-23T22:33:29.034Z,9.68
2022-10-23T22:36:14.403Z,6.47
2022-10-23T22:38:59.967Z,8.40
2022-10-23T22:41:45.387Z,5.03
2022-10-23T22:44:30.587Z,13.07
2022-10-23T22:47:16.139Z,6.05
2022-10-23T22:50:01.477Z,9.23
2022-10-23T22:52:46.950Z,6.30
2022-10-23T22:55:32.401Z,6.50
2022-10-23T22:58:20.943Z,16.77
2022-10-23T23:01:37.411Z,13.45
2022-10-23T23:04:38.897Z,8.65
2022-10-23T23:07:24.682Z,10.75
2022-10-23T23:10:10.296Z,5.35
2022-10-23T23:12:58.319Z,9.07
2022-10-23T23:15:43.918Z,8.60
2022-10-23T23:18:29.431Z,9.15
2022-10-23T23:21:14.795Z,14.23
2022-10-23T23:24:00.555Z,14.07
2022-10-23T23:26:45.775Z,12.43
2022-10-23T23:29:31.502Z,10.02
2022-10-23T23:32:17.043Z,10.52
2022-10-23T23:35:02.876Z,11.95
2022-10-23T23:37:48.348Z,11.23
2022-10-23T23:40:34.316Z,14.23
2022-10-23T23:43:20.486Z,11.82
2022-10-23T23:46:05.940Z,12.35
2022-10-23T23:48:54.417Z,10.90
2022-10-23T23:51:39.976Z,14.85
2022-10-23T23:54:25.345Z,10.88
2022-10-23T23:57:12.110Z,9.48
2022-10-23T23:59:57.679Z,17.15
